sensor_id;sensor_type;location;lat;lon;timestamp;P1;durP1;ratioP1;P2;durP2;ratioP2
24102;SDS011;12278;53.058;9.028;2022-12-07T00:00:19;17.95;;;11.95;;
24102;SDS011;12278;53.058;9.028;2022-12-07T00:04:20;17.87;;;11.37;;
24102;SDS011;12278;53.058;9.028;2022-12-07T00:08:21;13.40;;;9.70;;
24102;SDS011;12278;53.058;9.028;2022-12-07T00:12:21;17.40;;;10.80;;
24102;SDS011;12278;53.058;9.028;2022-12-07T00:16:23;14.10;;;9.70;;
24102;SDS011;12278;53.058;9.028;2022-12-07T00:20:26;13.97;;;9.37;;
24102;SDS011;12278;53.058;9.028;2022-12-07T00:24:26;15.33;;;9.03;;
24102;SDS011;12278;53.058;9.028;2022-12-07T00:28:27;13.83;;;9.10;;
24102;SDS011;12278;53.058;9.028;2022-12-07T00:32:27;12.07;;;8.13;;
24102;SDS011;12278;53.058;9.028;2022-12-07T00:36:28;12.10;;;8.43;;
24102;SDS011;12278;53.058;9.028;2022-12-07T00:40:29;12.60;;;8.30;;
24102;SDS011;12278;53.058;9.028;2022-12-07T00:44:29;12.97;;;8.77;;
24102;SDS011;12278;53.058;9.028;2022-12-07T00:48:30;14.40;;;9.30;;
24102;SDS011;12278;53.058;9.028;2022-12-07T00:52:31;10.63;;;7.60;;
24102;SDS011;12278;53.058;9.028;2022-12-07T00:56:31;10.90;;;7.10;;
24102;SDS011;12278;53.058;9.028;2022-12-07T01:00:32;11.00;;;6.70;;
24102;SDS011;12278;53.058;9.028;2022-12-07T01:04:34;10.27;;;7.27;;
24102;SDS011;12278;53.058;9.028;2022-12-07T01:08:36;10.93;;;6.60;;
24102;SDS011;12278;53.058;9.028;2022-12-07T01:12:36;11.17;;;6.67;;
24102;SDS011;12278;53.058;9.028;2022-12-07T01:16:38;10.10;;;6.20;;
24102;SDS011;12278;53.058;9.028;2022-12-07T01:20:40;11.00;;;5.63;;
24102;SDS011;12278;53.058;9.028;2022-12-07T01:24:40;9.17;;;5.93;;
24102;SDS011;12278;53.058;9.028;2022-12-07T01:28:41;10.53;;;6.87;;
24102;SDS011;12278;53.058;9.028;2022-12-07T01:32:45;12.10;;;6.57;;
24102;SDS011;12278;53.058;9.028;2022-12-07T01:36:46;8.83;;;5.60;;
24102;SDS011;12278;53.058;9.028;2022-12-07T01:40:53;12.17;;;6.27;;
24102;SDS011;12278;53.058;9.028;2022-12-07T01:49:18;7.77;;;4.87;;
24102;SDS011;12278;53.058;9.028;2022-12-07T01:58:11;8.77;;;5.50;;
24102;SDS011;12278;53.058;9.028;2022-12-07T02:02:16;9.90;;;5.10;;
24102;SDS011;12278;53.058;9.028;2022-12-07T02:06:20;10.90;;;5.13;;
24102;SDS011;12278;53.058;9.028;2022-12-07T02:14:27;8.20;;;4.10;;
24102;SDS011;12278;53.058;9.028;2022-12-07T02:36:21;4.63;;;3.10;;
24102;SDS011;12278;53.058;9.028;2022-12-07T02:40:34;8.73;;;4.17;;
24102;SDS011;12278;53.058;9.028;2022-12-07T02:44:41;4.17;;;3.13;;
24102;SDS011;12278;53.058;9.028;2022-12-07T02:48:43;7.57;;;3.57;;
24102;SDS011;12278;53.058;9.028;2022-12-07T02:52:47;7.37;;;3.20;;
24102;SDS011;12278;53.058;9.028;2022-12-07T02:56:53;6.50;;;3.00;;
24102;SDS011;12278;53.058;9.028;2022-12-07T03:01:15;5.50;;;3.40;;
24102;SDS011;12278;53.058;9.028;2022-12-07T03:09:43;6.13;;;3.10;;
24102;SDS011;12278;53.058;9.028;2022-12-07T03:14:09;7.87;;;4.50;;
24102;SDS011;12278;53.058;9.028;2022-12-07T03:18:20;7.90;;;4.13;;
24102;SDS011;12278;53.058;9.028;2022-12-07T03:22:24;9.27;;;4.27;;
24102;SDS011;12278;53.058;9.028;2022-12-07T03:26:34;7.60;;;3.87;;
24102;SDS011;12278;53.058;9.028;2022-12-07T03:35:00;6.60;;;3.73;;
24102;SDS011;12278;53.058;9.028;2022-12-07T03:39:30;6.20;;;3.37;;
24102;SDS011;12278;53.058;9.028;2022-12-07T03:43:33;9.77;;;3.40;;
24102;SDS011;12278;53.058;9.028;2022-12-07T03:56:02;9.83;;;3.47;;
24102;SDS011;12278;53.058;9.028;2022-12-07T04:00:05;3.43;;;2.00;;
24102;SDS011;12278;53.058;9.028;2022-12-07T04:04:07;6.77;;;2.93;;
24102;SDS011;12278;53.058;9.028;2022-12-07T04:08:08;5.57;;;3.03;;
24102;SDS011;12278;53.058;9.028;2022-12-07T04:12:09;6.33;;;2.03;;
24102;SDS011;12278;53.058;9.028;2022-12-07T04:16:09;4.90;;;2.03;;
24102;SDS011;12278;53.058;9.028;2022-12-07T04:24:14;4.03;;;1.40;;
24102;SDS011;12278;53.058;9.028;2022-12-07T04:28:15;3.03;;;1.43;;
24102;SDS011;12278;53.058;9.028;2022-12-07T04:32:15;6.87;;;1.90;;
24102;SDS011;12278;53.058;9.028;2022-12-07T04:36:16;8.60;;;2.40;;
24102;SDS011;12278;53.058;9.028;2022-12-07T04:40:17;3.37;;;2.17;;
24102;SDS011;12278;53.058;9.028;2022-12-07T04:44:25;3.40;;;1.90;;
24102;SDS011;12278;53.058;9.028;2022-12-07T04:48:26;3.70;;;2.57;;
24102;SDS011;12278;53.058;9.028;2022-12-07T04:52:28;4.27;;;2.37;;
24102;SDS011;12278;53.058;9.028;2022-12-07T04:56:30;7.20;;;3.00;;
24102;SDS011;12278;53.058;9.028;2022-12-07T05:00:31;5.37;;;3.13;;
24102;SDS011;12278;53.058;9.028;2022-12-07T05:04:32;6.23;;;3.10;;
24102;SDS011;12278;53.058;9.028;2022-12-07T05:08:35;6.10;;;3.80;;
24102;SDS011;12278;53.058;9.028;2022-12-07T05:12:38;6.67;;;4.17;;
24102;SDS011;12278;53.058;9.028;2022-12-07T05:16:38;7.30;;;3.70;;
24102;SDS011;12278;53.058;9.028;2022-12-07T05:20:41;8.77;;;3.93;;
24102;SDS011;12278;53.058;9.028;2022-12-07T05:24:43;5.07;;;3.37;;
24102;SDS011;12278;53.058;9.028;2022-12-07T05:28:49;10.27;;;4.53;;
24102;SDS011;12278;53.058;9.028;2022-12-07T05:32:50;5.40;;;3.47;;
24102;SDS011;12278;53.058;9.028;2022-12-07T05:36:51;4.03;;;3.33;;
24102;SDS011;12278;53.058;9.028;2022-12-07T05:40:52;7.17;;;4.17;;
24102;SDS011;12278;53.058;9.028;2022-12-07T05:44:52;6.13;;;3.70;;
24102;SDS011;12278;53.058;9.028;2022-12-07T05:48:53;4.53;;;2.93;;
24102;SDS011;12278;53.058;9.028;2022-12-07T05:52:54;5.77;;;3.67;;
24102;SDS011;12278;53.058;9.028;2022-12-07T06:05:09;4.43;;;3.20;;
24102;SDS011;12278;53.058;9.028;2022-12-07T06:09:10;4.60;;;2.60;;
24102;SDS011;12278;53.058;9.028;2022-12-07T06:13:12;6.70;;;3.37;;
24102;SDS011;12278;53.058;9.028;2022-12-07T06:17:14;4.50;;;2.83;;
24102;SDS011;12278;53.058;9.028;2022-12-07T06:21:25;3.40;;;2.53;;
24102;SDS011;12278;53.058;9.028;2022-12-07T06:25:26;4.93;;;2.67;;
24102;SDS011;12278;53.058;9.028;2022-12-07T06:29:27;3.90;;;2.27;;
24102;SDS011;12278;53.058;9.028;2022-12-07T06:33:28;9.33;;;2.30;;
24102;SDS011;12278;53.058;9.028;2022-12-07T06:37:28;2.80;;;2.40;;
24102;SDS011;12278;53.058;9.028;2022-12-07T06:41:36;6.67;;;2.10;;
24102;SDS011;12278;53.058;9.028;2022-12-07T06:45:37;4.43;;;2.27;;
24102;SDS011;12278;53.058;9.028;2022-12-07T06:49:38;4.37;;;2.27;;
24102;SDS011;12278;53.058;9.028;2022-12-07T06:53:38;1.97;;;1.33;;
24102;SDS011;12278;53.058;9.028;2022-12-07T06:57:39;2.47;;;1.33;;
24102;SDS011;12278;53.058;9.028;2022-12-07T07:05:47;5.87;;;2.47;;
24102;SDS011;12278;53.058;9.028;2022-12-07T07:09:52;3.00;;;2.37;;
24102;SDS011;12278;53.058;9.028;2022-12-07T07:13:57;5.03;;;2.40;;
24102;SDS011;12278;53.058;9.028;2022-12-07T07:18:03;3.93;;;2.93;;
24102;SDS011;12278;53.058;9.028;2022-12-07T07:26:09;5.47;;;2.50;;
24102;SDS011;12278;53.058;9.028;2022-12-07T07:30:13;8.07;;;2.90;;
24102;SDS011;12278;53.058;9.028;2022-12-07T07:34:14;3.57;;;2.13;;
24102;SDS011;12278;53.058;9.028;2022-12-07T07:38:14;5.37;;;2.13;;
24102;SDS011;12278;53.058;9.028;2022-12-07T07:42:15;5.90;;;2.30;;
24102;SDS011;12278;53.058;9.028;2022-12-07T07:46:16;5.03;;;1.77;;
24102;SDS011;12278;53.058;9.028;2022-12-07T07:50:17;5.13;;;1.70;;
24102;SDS011;12278;53.058;9.028;2022-12-07T07:54:18;5.87;;;1.97;;
24102;SDS011;12278;53.058;9.028;2022-12-07T07:58:19;5.23;;;2.73;;
24102;SDS011;12278;53.058;9.028;2022-12-07T08:02:20;6.20;;;2.30;;
24102;SDS011;12278;53.058;9.028;2022-12-07T08:06:23;2.87;;;1.87;;
24102;SDS011;12278;53.058;9.028;2022-12-07T08:10:23;2.57;;;1.77;;
24102;SDS011;12278;53.058;9.028;2022-12-07T08:14:24;6.57;;;1.90;;
24102;SDS011;12278;53.058;9.028;2022-12-07T08:18:27;4.20;;;2.10;;
24102;SDS011;12278;53.058;9.028;2022-12-07T08:26:34;5.57;;;1.80;;
24102;SDS011;12278;53.058;9.028;2022-12-07T08:30:42;4.27;;;2.03;;
24102;SDS011;12278;53.058;9.028;2022-12-07T08:34:43;2.30;;;1.70;;
24102;SDS011;12278;53.058;9.028;2022-12-07T08:38:45;3.33;;;1.50;;
24102;SDS011;12278;53.058;9.028;2022-12-07T08:42:49;4.50;;;2.00;;
24102;SDS011;12278;53.058;9.028;2022-12-07T08:46:54;4.53;;;1.60;;
24102;SDS011;12278;53.058;9.028;2022-12-07T08:51:02;5.37;;;1.77;;
24102;SDS011;12278;53.058;9.028;2022-12-07T08:55:03;4.50;;;1.90;;
24102;SDS011;12278;53.058;9.028;2022-12-07T08:59:05;1.43;;;1.33;;
24102;SDS011;12278;53.058;9.028;2022-12-07T09:03:06;1.87;;;1.57;;
24102;SDS011;12278;53.058;9.028;2022-12-07T09:07:07;2.80;;;1.47;;
24102;SDS011;12278;53.058;9.028;2022-12-07T09:11:08;1.50;;;0.93;;
24102;SDS011;12278;53.058;9.028;2022-12-07T09:15:09;3.07;;;1.13;;
24102;SDS011;12278;53.058;9.028;2022-12-07T09:19:10;3.77;;;1.30;;
24102;SDS011;12278;53.058;9.028;2022-12-07T09:23:10;3.03;;;1.50;;
24102;SDS011;12278;53.058;9.028;2022-12-07T09:27:11;2.20;;;1.73;;
24102;SDS011;12278;53.058;9.028;2022-12-07T09:31:12;1.97;;;1.50;;
24102;SDS011;12278;53.058;9.028;2022-12-07T09:35:14;2.63;;;1.37;;
24102;SDS011;12278;53.058;9.028;2022-12-07T09:39:14;6.63;;;1.53;;
24102;SDS011;12278;53.058;9.028;2022-12-07T09:43:19;6.50;;;1.30;;
24102;SDS011;12278;53.058;9.028;2022-12-07T09:47:22;4.33;;;1.40;;
24102;SDS011;12278;53.058;9.028;2022-12-07T09:51:25;2.00;;;1.30;;
24102;SDS011;12278;53.058;9.028;2022-12-07T09:55:26;2.70;;;1.50;;
24102;SDS011;12278;53.058;9.028;2022-12-07T09:59:36;3.40;;;1.20;;
24102;SDS011;12278;53.058;9.028;2022-12-07T10:03:40;3.27;;;1.47;;
24102;SDS011;12278;53.058;9.028;2022-12-07T10:07:45;6.03;;;1.47;;
24102;SDS011;12278;53.058;9.028;2022-12-07T10:11:58;3.23;;;1.60;;
24102;SDS011;12278;53.058;9.028;2022-12-07T10:15:59;2.53;;;1.97;;
24102;SDS011;12278;53.058;9.028;2022-12-07T10:24:21;3.63;;;1.30;;
24102;SDS011;12278;53.058;9.028;2022-12-07T10:28:22;3.27;;;1.60;;
24102;SDS011;12278;53.058;9.028;2022-12-07T10:36:36;3.73;;;1.87;;
24102;SDS011;12278;53.058;9.028;2022-12-07T10:40:38;2.03;;;1.83;;
24102;SDS011;12278;53.058;9.028;2022-12-07T10:44:38;1.50;;;1.40;;
24102;SDS011;12278;53.058;9.028;2022-12-07T11:01:23;5.00;;;1.63;;
24102;SDS011;12278;53.058;9.028;2022-12-07T11:10:16;3.27;;;1.60;;
24102;SDS011;12278;53.058;9.028;2022-12-07T11:14:37;7.17;;;2.27;;
24102;SDS011;12278;53.058;9.028;2022-12-07T11:19:11;6.10;;;2.40;;
24102;SDS011;12278;53.058;9.028;2022-12-07T11:23:27;3.73;;;2.60;;
24102;SDS011;12278;53.058;9.028;2022-12-07T11:36:52;5.57;;;1.80;;
24102;SDS011;12278;53.058;9.028;2022-12-07T11:40:56;1.90;;;1.80;;
24102;SDS011;12278;53.058;9.028;2022-12-07T11:45:34;1.67;;;1.20;;
24102;SDS011;12278;53.058;9.028;2022-12-07T11:53:58;6.00;;;2.10;;
24102;SDS011;12278;53.058;9.028;2022-12-07T11:58:04;2.63;;;1.00;;
24102;SDS011;12278;53.058;9.028;2022-12-07T12:02:18;3.03;;;1.40;;
24102;SDS011;12278;53.058;9.028;2022-12-07T12:06:30;2.13;;;1.17;;
24102;SDS011;12278;53.058;9.028;2022-12-07T12:10:51;2.53;;;1.90;;
24102;SDS011;12278;53.058;9.028;2022-12-07T12:24:16;5.07;;;1.50;;
24102;SDS011;12278;53.058;9.028;2022-12-07T12:28:44;4.97;;;1.90;;
24102;SDS011;12278;53.058;9.028;2022-12-07T12:32:50;4.67;;;2.33;;
24102;SDS011;12278;53.058;9.028;2022-12-07T12:36:51;2.77;;;2.20;;
24102;SDS011;12278;53.058;9.028;2022-12-07T12:40:52;4.50;;;2.10;;
24102;SDS011;12278;53.058;9.028;2022-12-07T12:53:25;4.47;;;2.07;;
24102;SDS011;12278;53.058;9.028;2022-12-07T12:57:28;5.43;;;2.87;;
24102;SDS011;12278;53.058;9.028;2022-12-07T13:01:33;5.17;;;1.93;;
24102;SDS011;12278;53.058;9.028;2022-12-07T13:05:41;1.90;;;1.33;;
24102;SDS011;12278;53.058;9.028;2022-12-07T13:09:42;0.93;;;0.77;;
24102;SDS011;12278;53.058;9.028;2022-12-07T13:30:20;2.57;;;1.30;;
24102;SDS011;12278;53.058;9.028;2022-12-07T13:38:32;3.60;;;1.07;;
24102;SDS011;12278;53.058;9.028;2022-12-07T13:42:34;2.47;;;0.93;;
24102;SDS011;12278;53.058;9.028;2022-12-07T13:46:48;3.40;;;2.00;;
24102;SDS011;12278;53.058;9.028;2022-12-07T13:50:55;5.33;;;1.70;;
24102;SDS011;12278;53.058;9.028;2022-12-07T13:54:57;1.87;;;1.70;;
24102;SDS011;12278;53.058;9.028;2022-12-07T13:58:58;2.70;;;1.50;;
24102;SDS011;12278;53.058;9.028;2022-12-07T14:07:25;4.33;;;2.30;;
24102;SDS011;12278;53.058;9.028;2022-12-07T14:15:32;2.13;;;1.60;;
24102;SDS011;12278;53.058;9.028;2022-12-07T14:24:33;9.10;;;2.77;;
24102;SDS011;12278;53.058;9.028;2022-12-07T14:28:44;3.20;;;2.27;;
24102;SDS011;12278;53.058;9.028;2022-12-07T14:32:48;6.00;;;3.30;;
24102;SDS011;12278;53.058;9.028;2022-12-07T14:36:55;4.30;;;1.83;;
24102;SDS011;12278;53.058;9.028;2022-12-07T14:40:55;2.20;;;1.27;;
24102;SDS011;12278;53.058;9.028;2022-12-07T14:45:20;6.13;;;2.00;;
24102;SDS011;12278;53.058;9.028;2022-12-07T14:49:21;2.83;;;1.60;;
24102;SDS011;12278;53.058;9.028;2022-12-07T14:53:23;4.07;;;1.57;;
24102;SDS011;12278;53.058;9.028;2022-12-07T14:57:30;2.50;;;1.13;;
24102;SDS011;12278;53.058;9.028;2022-12-07T15:01:30;6.50;;;2.13;;
24102;SDS011;12278;53.058;9.028;2022-12-07T15:05:31;2.50;;;2.30;;
24102;SDS011;12278;53.058;9.028;2022-12-07T15:09:33;5.97;;;2.03;;
24102;SDS011;12278;53.058;9.028;2022-12-07T15:13:34;2.37;;;2.10;;
24102;SDS011;12278;53.058;9.028;2022-12-07T15:17:53;5.07;;;2.20;;
24102;SDS011;12278;53.058;9.028;2022-12-07T15:21:54;6.90;;;2.80;;
24102;SDS011;12278;53.058;9.028;2022-12-07T15:25:55;4.53;;;3.10;;
24102;SDS011;12278;53.058;9.028;2022-12-07T15:34:00;6.10;;;3.90;;
24102;SDS011;12278;53.058;9.028;2022-12-07T15:38:00;5.43;;;3.27;;
24102;SDS011;12278;53.058;9.028;2022-12-07T15:42:01;10.13;;;5.03;;
24102;SDS011;12278;53.058;9.028;2022-12-07T15:50:17;6.77;;;4.40;;
24102;SDS011;12278;53.058;9.028;2022-12-07T15:54:22;6.03;;;3.83;;
24102;SDS011;12278;53.058;9.028;2022-12-07T16:02:25;6.60;;;2.33;;
24102;SDS011;12278;53.058;9.028;2022-12-07T16:06:26;3.20;;;2.50;;
24102;SDS011;12278;53.058;9.028;2022-12-07T16:10:26;4.87;;;2.93;;
24102;SDS011;12278;53.058;9.028;2022-12-07T16:14:27;2.83;;;2.20;;
24102;SDS011;12278;53.058;9.028;2022-12-07T16:18:28;8.77;;;2.90;;
24102;SDS011;12278;53.058;9.028;2022-12-07T16:22:28;4.90;;;2.63;;
24102;SDS011;12278;53.058;9.028;2022-12-07T16:26:29;5.57;;;3.10;;
24102;SDS011;12278;53.058;9.028;2022-12-07T16:30:30;8.07;;;3.27;;
24102;SDS011;12278;53.058;9.028;2022-12-07T16:34:31;6.73;;;3.57;;
24102;SDS011;12278;53.058;9.028;2022-12-07T16:42:39;4.07;;;3.27;;
24102;SDS011;12278;53.058;9.028;2022-12-07T16:46:40;3.97;;;3.10;;
24102;SDS011;12278;53.058;9.028;2022-12-07T16:50:41;4.07;;;2.83;;
24102;SDS011;12278;53.058;9.028;2022-12-07T16:54:43;5.27;;;3.00;;
24102;SDS011;12278;53.058;9.028;2022-12-07T16:58:43;6.70;;;3.27;;
24102;SDS011;12278;53.058;9.028;2022-12-07T17:02:46;6.00;;;3.30;;
24102;SDS011;12278;53.058;9.028;2022-12-07T17:06:46;4.57;;;3.10;;
24102;SDS011;12278;53.058;9.028;2022-12-07T17:10:47;7.17;;;3.33;;
24102;SDS011;12278;53.058;9.028;2022-12-07T17:14:48;6.27;;;4.47;;
24102;SDS011;12278;53.058;9.028;2022-12-07T17:19:08;5.03;;;4.53;;
24102;SDS011;12278;53.058;9.028;2022-12-07T17:23:10;5.87;;;4.20;;
24102;SDS011;12278;53.058;9.028;2022-12-07T17:27:11;5.00;;;4.10;;
24102;SDS011;12278;53.058;9.028;2022-12-07T17:31:12;5.63;;;5.03;;
24102;SDS011;12278;53.058;9.028;2022-12-07T17:35:14;7.20;;;5.33;;
24102;SDS011;12278;53.058;9.028;2022-12-07T17:39:16;6.17;;;5.40;;
24102;SDS011;12278;53.058;9.028;2022-12-07T17:43:17;5.80;;;4.90;;
24102;SDS011;12278;53.058;9.028;2022-12-07T17:47:18;8.47;;;5.67;;
24102;SDS011;12278;53.058;9.028;2022-12-07T17:51:20;7.13;;;4.23;;
24102;SDS011;12278;53.058;9.028;2022-12-07T17:55:39;7.50;;;4.17;;
24102;SDS011;12278;53.058;9.028;2022-12-07T17:59:40;5.60;;;5.03;;
24102;SDS011;12278;53.058;9.028;2022-12-07T18:07:44;6.03;;;3.90;;
24102;SDS011;12278;53.058;9.028;2022-12-07T18:11:45;8.67;;;4.60;;
24102;SDS011;12278;53.058;9.028;2022-12-07T18:15:45;4.77;;;3.87;;
24102;SDS011;12278;53.058;9.028;2022-12-07T18:19:52;8.60;;;4.40;;
24102;SDS011;12278;53.058;9.028;2022-12-07T18:23:54;5.73;;;4.67;;
24102;SDS011;12278;53.058;9.028;2022-12-07T18:27:56;4.93;;;4.43;;
24102;SDS011;12278;53.058;9.028;2022-12-07T18:31:56;5.70;;;4.20;;
24102;SDS011;12278;53.058;9.028;2022-12-07T18:35:58;6.13;;;4.97;;
24102;SDS011;12278;53.058;9.028;2022-12-07T18:39:59;5.70;;;5.20;;
24102;SDS011;12278;53.058;9.028;2022-12-07T18:44:02;6.67;;;5.30;;
24102;SDS011;12278;53.058;9.028;2022-12-07T18:48:04;11.37;;;5.17;;
24102;SDS011;12278;53.058;9.028;2022-12-07T18:52:05;8.07;;;6.53;;
24102;SDS011;12278;53.058;9.028;2022-12-07T19:00:16;8.83;;;6.70;;
24102;SDS011;12278;53.058;9.028;2022-12-07T19:08:24;8.63;;;6.50;;
24102;SDS011;12278;53.058;9.028;2022-12-07T19:12:26;8.23;;;6.13;;
24102;SDS011;12278;53.058;9.028;2022-12-07T19:16:39;8.57;;;6.20;;
24102;SDS011;12278;53.058;9.028;2022-12-07T19:20:40;7.20;;;5.80;;
24102;SDS011;12278;53.058;9.028;2022-12-07T19:24:43;8.33;;;5.20;;
24102;SDS011;12278;53.058;9.028;2022-12-07T19:28:48;9.43;;;6.87;;
24102;SDS011;12278;53.058;9.028;2022-12-07T19:32:49;8.30;;;6.30;;
24102;SDS011;12278;53.058;9.028;2022-12-07T19:36:50;7.20;;;5.30;;
24102;SDS011;12278;53.058;9.028;2022-12-07T19:40:50;7.23;;;5.53;;
24102;SDS011;12278;53.058;9.028;2022-12-07T19:44:51;6.47;;;4.43;;
24102;SDS011;12278;53.058;9.028;2022-12-07T19:48:52;9.03;;;5.83;;
24102;SDS011;12278;53.058;9.028;2022-12-07T19:52:52;9.63;;;7.57;;
24102;SDS011;12278;53.058;9.028;2022-12-07T19:56:55;6.50;;;5.80;;
24102;SDS011;12278;53.058;9.028;2022-12-07T20:01:01;8.07;;;5.20;;
24102;SDS011;12278;53.058;9.028;2022-12-07T20:05:02;6.40;;;4.67;;
24102;SDS011;12278;53.058;9.028;2022-12-07T20:09:03;7.20;;;4.77;;
24102;SDS011;12278;53.058;9.028;2022-12-07T20:13:04;5.67;;;4.60;;
24102;SDS011;12278;53.058;9.028;2022-12-07T20:17:23;5.57;;;4.97;;
24102;SDS011;12278;53.058;9.028;2022-12-07T20:21:24;7.70;;;4.40;;
24102;SDS011;12278;53.058;9.028;2022-12-07T20:25:25;5.33;;;3.70;;
24102;SDS011;12278;53.058;9.028;2022-12-07T20:29:26;5.10;;;4.20;;
24102;SDS011;12278;53.058;9.028;2022-12-07T20:33:28;5.17;;;3.70;;
24102;SDS011;12278;53.058;9.028;2022-12-07T20:37:29;3.83;;;3.33;;
24102;SDS011;12278;53.058;9.028;2022-12-07T20:45:53;4.67;;;3.87;;
24102;SDS011;12278;53.058;9.028;2022-12-07T20:53:58;5.27;;;3.50;;
24102;SDS011;12278;53.058;9.028;2022-12-07T20:57:59;6.73;;;4.07;;
24102;SDS011;12278;53.058;9.028;2022-12-07T21:02:00;6.50;;;4.83;;
24102;SDS011;12278;53.058;9.028;2022-12-07T21:06:01;4.77;;;4.00;;
24102;SDS011;12278;53.058;9.028;2022-12-07T21:10:02;11.83;;;4.80;;
24102;SDS011;12278;53.058;9.028;2022-12-07T21:14:04;5.57;;;3.33;;
24102;SDS011;12278;53.058;9.028;2022-12-07T21:18:05;7.17;;;4.33;;
24102;SDS011;12278;53.058;9.028;2022-12-07T21:22:06;5.10;;;3.80;;
24102;SDS011;12278;53.058;9.028;2022-12-07T21:26:10;4.77;;;3.67;;
24102;SDS011;12278;53.058;9.028;2022-12-07T21:30:12;10.07;;;4.97;;
24102;SDS011;12278;53.058;9.028;2022-12-07T21:34:16;8.00;;;4.53;;
24102;SDS011;12278;53.058;9.028;2022-12-07T21:38:16;9.00;;;4.77;;
24102;SDS011;12278;53.058;9.028;2022-12-07T21:42:18;5.70;;;3.40;;
24102;SDS011;12278;53.058;9.028;2022-12-07T21:46:19;5.70;;;3.50;;
24102;SDS011;12278;53.058;9.028;2022-12-07T21:50:21;7.30;;;3.60;;
24102;SDS011;12278;53.058;9.028;2022-12-07T21:54:22;6.87;;;4.17;;
24102;SDS011;12278;53.058;9.028;2022-12-07T21:58:23;7.97;;;3.77;;
24102;SDS011;12278;53.058;9.028;2022-12-07T22:02:23;5.10;;;3.87;;
24102;SDS011;12278;53.058;9.028;2022-12-07T22:06:24;3.83;;;3.37;;
24102;SDS011;12278;53.058;9.028;2022-12-07T22:10:25;5.57;;;3.27;;
24102;SDS011;12278;53.058;9.028;2022-12-07T22:14:35;7.20;;;3.33;;
24102;SDS011;12278;53.058;9.028;2022-12-07T22:18:55;4.43;;;3.23;;
24102;SDS011;12278;53.058;9.028;2022-12-07T22:23:11;4.73;;;3.30;;
24102;SDS011;12278;53.058;9.028;2022-12-07T22:31:43;4.33;;;3.83;;
24102;SDS011;12278;53.058;9.028;2022-12-07T22:35:44;6.00;;;4.27;;
24102;SDS011;12278;53.058;9.028;2022-12-07T22:39:51;5.47;;;3.77;;
24102;SDS011;12278;53.058;9.028;2022-12-07T22:43:56;6.93;;;4.20;;
24102;SDS011;12278;53.058;9.028;2022-12-07T22:47:57;4.30;;;3.87;;
24102;SDS011;12278;53.058;9.028;2022-12-07T22:51:57;5.50;;;4.13;;
24102;SDS011;12278;53.058;9.028;2022-12-07T22:56:01;7.30;;;4.07;;
24102;SDS011;12278;53.058;9.028;2022-12-07T23:00:02;3.53;;;3.23;;
24102;SDS011;12278;53.058;9.028;2022-12-07T23:04:04;5.57;;;3.73;;
24102;SDS011;12278;53.058;9.028;2022-12-07T23:08:06;4.93;;;3.80;;
24102;SDS011;12278;53.058;9.028;2022-12-07T23:12:07;5.33;;;3.90;;
24102;SDS011;12278;53.058;9.028;2022-12-07T23:16:27;7.87;;;4.27;;
24102;SDS011;12278;53.058;9.028;2022-12-07T23:20:29;5.30;;;2.90;;
24102;SDS011;12278;53.058;9.028;2022-12-07T23:24:33;5.70;;;4.20;;
24102;SDS011;12278;53.058;9.028;2022-12-07T23:28:34;6.87;;;4.23;;
24102;SDS011;12278;53.058;9.028;2022-12-07T23:32:35;5.53;;;3.50;;
24102;SDS011;12278;53.058;9.028;2022-12-07T23:36:35;5.43;;;4.23;;
24102;SDS011;12278;53.058;9.028;2022-12-07T23:40:36;4.40;;;3.17;;
24102;SDS011;12278;53.058;9.028;2022-12-07T23:48:42;4.93;;;3.60;;
24102;SDS011;12278;53.058;9.028;2022-12-07T23:52:43;5.23;;;3.67;;
24102;SDS011;12278;53.058;9.028;2022-12-07T23:56:43;8.20;;;4.30;;
